Delta Virtual Airport Information Service

Calgary International Airport

ICAO: CYYC Country: Canada
Latitude: 51.1139 Longitude: -114.02
Latest Arrival : DAL1048 (2A) (KSLC-CYYC) Latest Departure : ACA2094 (CYYC-CYYZ)


WX CaptureLIVE
Data provided by noaa.gov | Fetched at 03:21:43

METAR : CYYC 300800Z 29007KT 10SM BKN069 11/M02 A3037 RMK AC6 VIRGA ALQDS SLP298

TAF : CYYC 300543Z 3006/0106 36008KT P6SM FEW025 BKN050 TEMPO 3007/3015 P6SM -SHRA BKN020 OVC040 FM301500 01008KT P6SM OVC050 FM302000 07005KT P6SM SCT060 FM302300 11005KT P6SM SKC BECMG 0104/0106 16005KT RMK NXT FCST BY 300900Z


Runway Data for CYYC
Data provided by openaviationdata.com

Runway ID Mag Var Hdg Length Elevation Surface ILS Freq ILS Id ILS Slope
7 17 73° 6187 ft 3556 ft Asphalt -- -- --
10 17 103° 7983 ft 3556 ft Asphalt -- -- --
16 17 163° 12659 ft 3556 ft Asphalt 109.3 IEM 3
25 17 253° 6187 ft 3556 ft Asphalt -- -- --
28 17 283° 7983 ft 3556 ft Asphalt 110.9 IAQ 3
34 17 343° 12659 ft 3556 ft Asphalt 111.5 IYC 3

Calgary International Airport, Canada
Use only for reference purposes



Not for navigational purposes.